createdAt,value
2022-12-01T00:01:04.288Z,5.20
2022-12-01T00:03:31.550Z,5.22
2022-12-01T00:06:02.517Z,5.23
2022-12-01T00:08:29.688Z,5.26
2022-12-01T00:10:56.352Z,5.23
2022-12-01T00:13:22.707Z,5.30
2022-12-01T00:15:49.127Z,5.32
2022-12-01T00:18:15.477Z,5.30
2022-12-01T00:20:41.792Z,5.28
2022-12-01T00:23:08.260Z,5.31
2022-12-01T00:25:34.611Z,5.35
2022-12-01T00:28:01.064Z,5.32
2022-12-01T00:30:27.413Z,5.26
2022-12-01T00:32:53.754Z,5.31
2022-12-01T00:35:20.117Z,5.30
2022-12-01T00:37:46.497Z,5.27
2022-12-01T00:40:13.402Z,5.31
2022-12-01T00:42:39.819Z,5.30
2022-12-01T00:45:07.091Z,5.28
2022-12-01T00:47:33.371Z,5.29
2022-12-01T00:49:59.724Z,5.34
2022-12-01T00:52:26.122Z,5.37
2022-12-01T00:54:52.465Z,5.32
2022-12-01T00:57:18.817Z,5.32
2022-12-01T00:59:45.205Z,5.31
2022-12-01T01:02:11.613Z,5.31
2022-12-01T01:04:37.976Z,5.31
2022-12-01T01:07:04.360Z,5.34
2022-12-01T01:09:31.917Z,5.33
2022-12-01T01:11:58.299Z,5.35
2022-12-01T01:14:24.781Z,5.40
2022-12-01T01:16:51.231Z,5.39
2022-12-01T01:19:17.659Z,5.42
2022-12-01T01:21:44.226Z,5.49
2022-12-01T01:24:10.651Z,5.43
2022-12-01T01:26:37.681Z,5.48
2022-12-01T01:29:06.045Z,5.50
2022-12-01T01:31:32.634Z,5.52
2022-12-01T01:33:59.389Z,5.52
2022-12-01T01:36:27.014Z,5.51
2022-12-01T01:38:53.477Z,5.44
2022-12-01T01:41:21.023Z,5.52
2022-12-01T01:43:58.831Z,5.59
2022-12-01T01:46:27.763Z,5.51
2022-12-01T01:49:00.918Z,5.48
2022-12-01T01:51:42.214Z,5.52
2022-12-01T01:54:17.780Z,5.51
2022-12-01T01:56:45.956Z,5.56
2022-12-01T01:59:15.044Z,5.49
2022-12-01T02:01:41.577Z,5.52
2022-12-01T02:04:08.394Z,5.52
2022-12-01T02:06:34.836Z,5.49
2022-12-01T02:09:01.140Z,5.49
2022-12-01T02:12:03.312Z,5.52
2022-12-01T02:14:54.699Z,5.61
2022-12-01T02:17:47.944Z,5.59
2022-12-01T02:20:26.394Z,5.60
2022-12-01T02:23:25.765Z,5.52
2022-12-01T02:26:10.848Z,5.56
2022-12-01T02:28:49.264Z,5.56
2022-12-01T02:31:28.559Z,5.51
2022-12-01T02:34:05.690Z,5.51
2022-12-01T02:36:40.013Z,5.48
2022-12-01T02:39:16.898Z,5.47
2022-12-01T02:42:02.198Z,5.51
2022-12-01T02:44:39.783Z,5.51
2022-12-01T02:47:12.825Z,5.52
2022-12-01T02:49:47.389Z,5.46
2022-12-01T02:52:15.788Z,5.52
2022-12-01T02:54:45.054Z,5.46
2022-12-01T02:57:13.449Z,5.48
2022-12-01T02:59:41.835Z,5.44
2022-12-01T03:02:18.877Z,5.49
2022-12-01T03:05:33.184Z,5.51
2022-12-01T03:08:28.386Z,5.51
2022-12-01T03:10:57.505Z,5.51
2022-12-01T03:13:26.545Z,5.45
2022-12-01T03:16:08.205Z,5.48
2022-12-01T03:18:42.829Z,5.45
2022-12-01T03:21:38.148Z,5.45
2022-12-01T03:24:14.073Z,5.37
2022-12-01T03:26:42.799Z,5.48
2022-12-01T03:29:14.925Z,5.46
2022-12-01T03:31:59.954Z,5.43
2022-12-01T03:34:41.780Z,5.43
2022-12-01T03:37:14.625Z,5.39
2022-12-01T03:39:43.680Z,5.47
2022-12-01T03:42:37.927Z,5.44
2022-12-01T03:45:17.770Z,5.47
2022-12-01T03:47:46.122Z,5.42
2022-12-01T03:50:13.404Z,5.45
2022-12-01T03:53:05.986Z,5.48
2022-12-01T03:55:38.653Z,5.45
2022-12-01T03:58:16.445Z,5.49
2022-12-01T04:00:44.701Z,5.45
2022-12-01T04:03:22.917Z,5.43
2022-12-01T04:05:49.401Z,5.46
2022-12-01T04:08:15.829Z,5.39
2022-12-01T04:10:42.388Z,5.39
2022-12-01T04:13:08.836Z,5.36
2022-12-01T04:15:35.207Z,5.36
2022-12-01T04:18:01.541Z,5.35
2022-12-01T04:20:28.051Z,5.32
2022-12-01T04:22:54.646Z,5.29
2022-12-01T04:25:21.176Z,5.29
2022-12-01T04:27:47.534Z,5.24
2022-12-01T04:30:14.172Z,5.24
2022-12-01T04:32:42.456Z,5.25
2022-12-01T04:35:10.562Z,5.23
2022-12-01T04:37:37.521Z,5.20
2022-12-01T04:40:04.977Z,5.23
2022-12-01T04:42:31.769Z,5.23
2022-12-01T04:44:58.091Z,5.22
2022-12-01T04:47:24.438Z,5.27
2022-12-01T04:49:51.114Z,5.27
2022-12-01T04:52:17.774Z,5.26
2022-12-01T04:54:44.067Z,5.21
2022-12-01T04:57:10.628Z,5.25
2022-12-01T04:59:37.013Z,5.18
2022-12-01T05:02:05.776Z,5.19
2022-12-01T05:04:32.204Z,5.25
2022-12-01T05:06:58.598Z,5.26
2022-12-01T05:09:24.966Z,5.22
2022-12-01T05:11:51.277Z,5.18
2022-12-01T05:14:17.620Z,5.19
2022-12-01T05:16:45.268Z,5.21
2022-12-01T05:19:11.695Z,5.21
2022-12-01T05:21:38.374Z,5.15
2022-12-01T05:24:06.021Z,5.16
2022-12-01T05:26:32.472Z,5.16
2022-12-01T05:28:58.906Z,5.11
2022-12-01T05:31:25.349Z,5.12
2022-12-01T05:33:51.817Z,5.08
2022-12-01T05:36:18.237Z,5.04
2022-12-01T05:38:44.603Z,4.96
2022-12-01T05:41:11.303Z,4.89
2022-12-01T05:43:37.717Z,4.85
2022-12-01T05:46:05.166Z,4.86
2022-12-01T05:48:31.962Z,4.93
2022-12-01T05:50:58.514Z,4.93
2022-12-01T05:53:24.868Z,4.87
2022-12-01T05:55:52.532Z,4.93
2022-12-01T05:58:19.144Z,4.89
2022-12-01T06:00:47.201Z,4.96
2022-12-01T06:03:14.082Z,4.95
2022-12-01T06:05:40.908Z,4.99
2022-12-01T06:08:07.797Z,5.00
2022-12-01T06:10:34.245Z,5.03
2022-12-01T06:13:00.675Z,5.00
2022-12-01T06:15:27.048Z,4.90
2022-12-01T06:17:53.392Z,4.85
2022-12-01T06:20:21.126Z,4.75
2022-12-01T06:22:47.463Z,4.68
2022-12-01T06:25:13.813Z,4.52
2022-12-01T06:27:40.224Z,4.40
2022-12-01T06:30:08.524Z,4.23
2022-12-01T06:32:35.030Z,4.11
2022-12-01T06:35:01.690Z,3.98
2022-12-01T06:37:28.669Z,3.89
2022-12-01T06:39:54.985Z,3.93
2022-12-01T06:42:21.386Z,3.85
2022-12-01T06:44:47.928Z,3.78
2022-12-01T06:47:14.557Z,3.71
2022-12-01T06:49:41.119Z,3.69
2022-12-01T06:52:07.640Z,3.69
2022-12-01T06:54:34.063Z,3.71
2022-12-01T06:57:00.448Z,3.64
2022-12-01T06:59:27.091Z,3.63
2022-12-01T07:01:53.817Z,3.60
2022-12-01T07:04:20.506Z,3.54
2022-12-01T07:06:46.919Z,3.45
2022-12-01T07:09:13.251Z,3.48
2022-12-01T07:11:39.715Z,3.43
2022-12-01T07:14:06.215Z,3.42
2022-12-01T07:16:32.765Z,3.38
2022-12-01T07:18:59.155Z,3.29
2022-12-01T07:21:25.622Z,3.29
2022-12-01T07:23:52.115Z,3.17
2022-12-01T07:26:21.058Z,3.01
2022-12-01T07:28:47.412Z,2.96
2022-12-01T07:31:16.657Z,2.96
2022-12-01T07:33:43.405Z,2.93
2022-12-01T07:36:11.349Z,2.92
2022-12-01T07:38:39.833Z,2.86
2022-12-01T07:41:12.081Z,2.84
2022-12-01T07:43:39.179Z,2.81
2022-12-01T07:46:13.644Z,2.84
2022-12-01T07:48:42.756Z,2.87
2022-12-01T07:51:10.890Z,2.96
2022-12-01T07:53:37.724Z,2.99
2022-12-01T07:56:08.578Z,2.95
2022-12-01T07:58:35.795Z,3.04
2022-12-01T08:01:12.506Z,3.10
2022-12-01T08:03:38.954Z,3.17
2022-12-01T08:06:07.371Z,3.23
2022-12-01T08:08:35.809Z,3.30
2022-12-01T08:11:05.283Z,3.35
2022-12-01T08:13:31.926Z,3.51
2022-12-01T08:15:58.502Z,3.61
2022-12-01T08:18:24.944Z,3.69
2022-12-01T08:20:51.554Z,3.81
2022-12-01T08:23:17.970Z,3.87
2022-12-01T08:25:45.434Z,3.98
2022-12-01T08:28:11.782Z,4.06
2022-12-01T08:30:38.258Z,4.19
2022-12-01T08:33:04.643Z,4.33
2022-12-01T08:35:31.114Z,4.36
2022-12-01T08:37:57.514Z,4.52
2022-12-01T08:40:23.898Z,4.56
2022-12-01T08:42:52.406Z,4.54
2022-12-01T08:45:19.145Z,4.69
2022-12-01T08:47:45.487Z,4.72
2022-12-01T08:50:12.239Z,4.85
2022-12-01T08:52:38.825Z,4.95
2022-12-01T08:55:05.803Z,5.00
2022-12-01T08:57:32.607Z,5.02
2022-12-01T08:59:58.967Z,5.16
2022-12-01T09:02:25.766Z,5.22
2022-12-01T09:04:52.247Z,5.33
2022-12-01T09:07:25.882Z,5.35
2022-12-01T09:09:53.083Z,5.48
2022-12-01T09:12:19.548Z,5.52
2022-12-01T09:14:46.047Z,5.62
2022-12-01T09:17:12.352Z,5.67
2022-12-01T09:19:38.915Z,5.80
2022-12-01T09:22:05.438Z,5.78
2022-12-01T09:24:33.596Z,5.94
2022-12-01T09:27:00.544Z,5.92
2022-12-01T09:29:26.894Z,6.05
2022-12-01T09:31:59.888Z,6.08
2022-12-01T09:34:27.180Z,6.23
2022-12-01T09:36:57.144Z,6.23
2022-12-01T09:39:24.061Z,6.46
2022-12-01T09:42:06.174Z,6.94
2022-12-01T09:44:56.755Z,8.02
2022-12-01T09:47:30.714Z,9.30
2022-12-01T09:50:26.778Z,10.56
2022-12-01T09:53:05.798Z,11.45
2022-12-01T09:55:34.610Z,12.07
2022-12-01T09:58:03.703Z,12.35
2022-12-01T10:00:36.741Z,12.79
2022-12-01T10:03:12.708Z,13.25
2022-12-01T10:06:25.028Z,13.09
2022-12-01T10:08:42.596Z,13.94
2022-12-01T10:11:26.047Z,13.96
2022-12-01T10:13:52.704Z,15.24
2022-12-01T10:16:28.212Z,15.14
2022-12-01T10:19:21.927Z,14.65
2022-12-01T10:22:28.773Z,14.61
2022-12-01T10:25:19.424Z,13.94
2022-12-01T10:28:23.305Z,13.67
2022-12-01T10:30:51.643Z,12.05
2022-12-01T10:33:26.705Z,11.36
2022-12-01T10:35:54.133Z,10.36
2022-12-01T10:38:34.662Z,9.48
2022-12-01T10:41:04.245Z,9.33
2022-12-01T10:43:44.839Z,8.66
2022-12-01T10:46:44.463Z,8.33
2022-12-01T10:49:13.310Z,8.03
2022-12-01T10:52:06.971Z,8.10
2022-12-01T10:54:38.958Z,8.28
2022-12-01T10:57:13.896Z,8.22
2022-12-01T10:59:52.536Z,8.88
2022-12-01T11:02:25.703Z,8.94
2022-12-01T11:05:00.406Z,9.37
2022-12-01T11:07:34.652Z,9.68
2022-12-01T11:10:20.299Z,10.16
2022-12-01T11:12:56.051Z,10.24
2022-12-01T11:15:34.302Z,10.48
2022-12-01T11:18:04.096Z,10.95
2022-12-01T11:20:32.107Z,12.21
2022-12-01T11:23:20.397Z,13.09
2022-12-01T11:26:03.947Z,13.08
2022-12-01T11:28:31.844Z,13.26
2022-12-01T11:31:16.629Z,14.04
2022-12-01T11:33:52.930Z,15.03
2022-12-01T11:36:21.323Z,15.50
2022-12-01T11:38:47.991Z,15.92
2022-12-01T11:41:29.694Z,15.74
2022-12-01T11:44:01.443Z,15.43
2022-12-01T11:46:46.289Z,16.03
2022-12-01T11:49:28.446Z,16.72
2022-12-01T11:51:54.848Z,17.46
2022-12-01T11:54:25.787Z,17.64
2022-12-01T11:57:25.358Z,18.23
2022-12-01T11:59:40.861Z,17.22
2022-12-01T12:02:47.953Z,17.24
2022-12-01T12:05:17.350Z,17.34
2022-12-01T12:08:16.395Z,17.60
2022-12-01T12:10:48.938Z,16.90
2022-12-01T12:13:34.155Z,17.59
2022-12-01T12:16:00.552Z,17.60
2022-12-01T12:18:46.807Z,18.06
2022-12-01T12:21:41.546Z,18.04
2022-12-01T12:24:24.286Z,18.11
2022-12-01T12:27:10.730Z,16.92
2022-12-01T12:29:47.592Z,17.92
2022-12-01T12:32:35.998Z,17.49
2022-12-01T12:35:23.775Z,18.28
2022-12-01T12:38:26.782Z,18.78
2022-12-01T12:41:18.615Z,19.56
2022-12-01T12:43:59.892Z,18.92
2022-12-01T12:46:37.249Z,18.89
2022-12-01T12:49:27.198Z,17.16
2022-12-01T12:52:10.772Z,16.29
2022-12-01T12:54:54.891Z,15.21
2022-12-01T12:57:30.686Z,13.66
2022-12-01T13:00:08.139Z,13.84
2022-12-01T13:02:43.434Z,14.51
2022-12-01T13:05:19.999Z,14.93
2022-12-01T13:07:53.932Z,15.76
2022-12-01T13:10:42.675Z,15.44
2022-12-01T13:13:18.506Z,16.50
2022-12-01T13:15:46.542Z,15.70
2022-12-01T13:18:26.365Z,15.80
2022-12-01T13:20:55.688Z,16.66
2022-12-01T13:23:23.990Z,17.31
2022-12-01T13:25:54.165Z,17.96
2022-12-01T13:28:22.677Z,17.13
2022-12-01T13:31:06.765Z,16.43
2022-12-01T13:33:34.590Z,17.32
2022-12-01T13:36:30.320Z,16.87
2022-12-01T13:38:56.472Z,15.32
2022-12-01T13:41:28.173Z,16.24
2022-12-01T13:43:59.496Z,14.94
2022-12-01T13:47:11.962Z,13.99
2022-12-01T13:49:44.510Z,13.40
2022-12-01T13:52:22.962Z,12.45
2022-12-01T13:55:11.303Z,11.53
2022-12-01T13:57:44.827Z,10.66
2022-12-01T14:00:23.409Z,10.22
2022-12-01T14:03:25.380Z,9.57
2022-12-01T14:06:13.754Z,9.48
2022-12-01T14:08:50.262Z,9.12
2022-12-01T14:11:25.470Z,9.02
2022-12-01T14:14:12.798Z,8.83
2022-12-01T14:16:54.911Z,8.74
2022-12-01T14:19:45.143Z,8.60
2022-12-01T14:22:43.987Z,8.58
2022-12-01T14:25:19.492Z,8.70
2022-12-01T14:27:47.391Z,8.35
2022-12-01T14:30:42.115Z,8.43
2022-12-01T14:33:41.828Z,8.48
2022-12-01T14:36:24.301Z,8.46
2022-12-01T14:38:56.950Z,8.26
2022-12-01T14:41:31.958Z,8.06
2022-12-01T14:44:27.644Z,8.04
2022-12-01T14:47:06.371Z,7.88
2022-12-01T14:49:40.587Z,7.87
2022-12-01T14:52:17.538Z,7.71
2022-12-01T14:54:47.826Z,7.63
2022-12-01T14:57:20.168Z,7.58
2022-12-01T14:59:46.520Z,7.50
2022-12-01T15:02:13.784Z,7.43
2022-12-01T15:05:08.810Z,7.33
2022-12-01T15:07:45.841Z,7.20
2022-12-01T15:10:16.888Z,7.09
2022-12-01T15:12:43.461Z,7.01
2022-12-01T15:15:24.160Z,6.88
2022-12-01T15:17:52.678Z,6.80
2022-12-01T15:20:29.620Z,6.69
2022-12-01T15:22:56.919Z,6.58
2022-12-01T15:25:23.993Z,6.54
2022-12-01T15:28:29.921Z,6.49
2022-12-01T15:31:00.899Z,6.36
2022-12-01T15:33:36.570Z,6.22
2022-12-01T15:36:04.476Z,6.09
2022-12-01T15:38:38.645Z,5.98
2022-12-01T15:41:28.531Z,5.89
2022-12-01T15:43:58.683Z,5.79
2022-12-01T15:46:30.709Z,5.63
2022-12-01T15:49:18.288Z,5.61
2022-12-01T15:51:46.336Z,5.49
2022-12-01T15:54:23.158Z,5.38
2022-12-01T15:56:58.055Z,5.27
2022-12-01T15:59:40.338Z,5.26
2022-12-01T16:02:29.673Z,5.10
2022-12-01T16:05:21.938Z,5.09
2022-12-01T16:08:12.701Z,5.08
2022-12-01T16:10:38.143Z,5.03
2022-12-01T16:13:38.099Z,4.86
2022-12-01T16:16:26.887Z,4.67
2022-12-01T16:18:56.643Z,4.59
2022-12-01T16:21:24.237Z,4.46
2022-12-01T16:23:59.318Z,4.35
2022-12-01T16:26:25.928Z,4.38
2022-12-01T16:28:54.463Z,4.40
2022-12-01T16:31:21.284Z,4.33
2022-12-01T16:33:48.028Z,4.38
2022-12-01T16:36:14.726Z,4.41
2022-12-01T16:38:41.537Z,4.28
2022-12-01T16:41:38.117Z,4.31
2022-12-01T16:44:27.522Z,4.30
2022-12-01T16:46:52.535Z,4.27
2022-12-01T16:49:18.863Z,4.30
2022-12-01T16:52:06.956Z,4.14
2022-12-01T16:54:31.556Z,4.04
2022-12-01T16:56:57.971Z,4.07
2022-12-01T16:59:24.319Z,3.96
2022-12-01T17:01:50.709Z,3.95
2022-12-01T17:04:17.173Z,3.95
2022-12-01T17:06:43.678Z,3.93
2022-12-01T17:09:10.062Z,3.94
2022-12-01T17:11:36.484Z,3.89
2022-12-01T17:14:02.846Z,3.82
2022-12-01T17:16:29.228Z,3.78
2022-12-01T17:18:55.610Z,3.74
2022-12-01T17:21:21.943Z,3.69
2022-12-01T17:23:48.286Z,3.69
2022-12-01T17:26:17.300Z,3.62
2022-12-01T17:28:43.587Z,3.49
2022-12-01T17:31:11.517Z,3.47
2022-12-01T17:33:38.045Z,3.45
2022-12-01T17:36:08.352Z,3.44
2022-12-01T17:38:36.107Z,3.42
2022-12-01T17:41:08.403Z,3.35
2022-12-01T17:43:36.417Z,3.31
2022-12-01T17:46:04.547Z,3.20
2022-12-01T17:48:37.731Z,3.19
2022-12-01T17:51:05.446Z,3.10
2022-12-01T17:53:32.901Z,3.06
2022-12-01T17:55:59.326Z,3.01
2022-12-01T17:58:27.869Z,2.93
2022-12-01T18:00:54.306Z,2.87
2022-12-01T18:03:21.376Z,2.83
2022-12-01T18:05:59.069Z,2.83
2022-12-01T18:08:26.931Z,2.76
2022-12-01T18:10:53.765Z,2.73
2022-12-01T18:13:21.581Z,2.64
2022-12-01T18:15:48.854Z,2.67
2022-12-01T18:18:15.666Z,2.69
2022-12-01T18:20:43.392Z,2.69
2022-12-01T18:23:11.271Z,2.60
2022-12-01T18:25:39.383Z,2.55
2022-12-01T18:28:06.706Z,2.55
2022-12-01T18:30:33.988Z,2.51
2022-12-01T18:33:01.242Z,2.49
2022-12-01T18:35:31.796Z,2.55
2022-12-01T18:37:58.502Z,2.46
2022-12-01T18:40:24.851Z,2.47
2022-12-01T18:42:52.575Z,2.51
2022-12-01T18:45:21.345Z,2.51
2022-12-01T18:47:48.099Z,2.50
2022-12-01T18:50:17.621Z,2.36
2022-12-01T18:52:44.007Z,2.36
2022-12-01T18:55:10.727Z,2.37
2022-12-01T18:57:37.172Z,2.36
2022-12-01T19:00:07.193Z,2.41
2022-12-01T19:02:33.669Z,2.38
2022-12-01T19:05:01.280Z,2.40
2022-12-01T19:07:30.012Z,2.32
2022-12-01T19:09:57.227Z,2.34
2022-12-01T19:12:23.571Z,2.30
2022-12-01T19:14:50.502Z,2.29
2022-12-01T19:17:16.995Z,2.29
2022-12-01T19:19:44.703Z,2.35
2022-12-01T19:22:11.195Z,2.44
2022-12-01T19:24:37.574Z,2.43
2022-12-01T19:27:04.142Z,2.58
2022-12-01T19:29:30.650Z,2.54
2022-12-01T19:31:57.109Z,2.60
2022-12-01T19:34:23.451Z,2.62
2022-12-01T19:36:50.013Z,2.66
2022-12-01T19:39:16.428Z,2.67
2022-12-01T19:41:42.864Z,2.71
2022-12-01T19:44:09.754Z,2.63
2022-12-01T19:46:36.045Z,2.68
2022-12-01T19:49:03.482Z,2.67
2022-12-01T19:51:33.071Z,2.69
2022-12-01T19:53:59.416Z,2.69
2022-12-01T19:56:25.926Z,2.73
2022-12-01T19:58:52.498Z,2.78
2022-12-01T20:01:20.018Z,2.81
2022-12-01T20:03:48.577Z,2.82
2022-12-01T20:06:21.556Z,2.86
2022-12-01T20:08:48.160Z,2.85
2022-12-01T20:11:14.628Z,2.96
2022-12-01T20:13:42.795Z,3.04
2022-12-01T20:16:11.489Z,3.08
2022-12-01T20:18:38.700Z,3.10
2022-12-01T20:21:07.588Z,3.08
2022-12-01T20:23:35.186Z,3.12
2022-12-01T20:26:03.749Z,3.11
2022-12-01T20:28:30.548Z,3.08
2022-12-01T20:30:58.100Z,3.19
2022-12-01T20:33:25.817Z,3.28
2022-12-01T20:35:52.251Z,3.38
2022-12-01T20:38:22.923Z,3.44
2022-12-01T20:40:52.620Z,3.49
2022-12-01T20:43:19.383Z,3.55
2022-12-01T20:45:46.007Z,3.59
2022-12-01T20:48:12.905Z,3.64
2022-12-01T20:50:39.808Z,3.70
2022-12-01T20:53:06.403Z,3.69
2022-12-01T20:55:35.107Z,3.70
2022-12-01T20:58:01.447Z,3.73
2022-12-01T21:00:27.895Z,3.79
2022-12-01T21:02:54.501Z,3.82
2022-12-01T21:05:21.937Z,3.81
2022-12-01T21:07:48.368Z,3.82
2022-12-01T21:10:19.782Z,3.83
2022-12-01T21:12:51.790Z,3.85
2022-12-01T21:15:27.400Z,3.96
2022-12-01T21:17:59.205Z,3.91
2022-12-01T21:20:29.774Z,3.93
2022-12-01T21:23:01.709Z,3.88
2022-12-01T21:25:28.282Z,3.88
2022-12-01T21:27:57.957Z,3.87
2022-12-01T21:30:24.953Z,3.88
2022-12-01T21:32:51.870Z,3.94
2022-12-01T21:35:24.412Z,3.97
2022-12-01T21:37:58.139Z,4.01
2022-12-01T21:40:26.200Z,4.06
2022-12-01T21:42:52.739Z,4.11
2022-12-01T21:45:26.724Z,4.11
2022-12-01T21:47:53.674Z,4.11
2022-12-01T21:50:22.832Z,4.14
2022-12-01T21:52:50.049Z,4.14
2022-12-01T21:55:22.331Z,4.14
2022-12-01T21:57:50.565Z,4.18
2022-12-01T22:00:24.719Z,4.24
2022-12-01T22:03:09.166Z,4.24
2022-12-01T22:05:42.864Z,4.28
2022-12-01T22:08:12.217Z,4.26
2022-12-01T22:10:57.449Z,4.32
2022-12-01T22:13:27.092Z,4.35
2022-12-01T22:15:53.958Z,4.37
2022-12-01T22:18:24.397Z,4.35
2022-12-01T22:20:50.826Z,4.39
2022-12-01T22:23:18.954Z,4.38
2022-12-01T22:25:46.326Z,4.39
2022-12-01T22:28:22.039Z,4.36
2022-12-01T22:30:48.489Z,4.40
2022-12-01T22:33:24.540Z,4.44
2022-12-01T22:35:52.847Z,4.51
2022-12-01T22:38:28.256Z,4.54
2022-12-01T22:41:06.558Z,4.54
2022-12-01T22:43:42.150Z,4.56
2022-12-01T22:46:20.399Z,4.60
2022-12-01T22:48:52.306Z,4.59
2022-12-01T22:51:42.786Z,4.59
2022-12-01T22:54:09.246Z,4.64
2022-12-01T22:56:39.999Z,4.63
2022-12-01T22:59:18.569Z,4.65
2022-12-01T23:01:47.995Z,4.64
2022-12-01T23:04:27.776Z,4.69
2022-12-01T23:06:58.815Z,4.66
2022-12-01T23:09:34.046Z,4.61
2022-12-01T23:12:22.881Z,4.66
2022-12-01T23:14:52.954Z,4.63
2022-12-01T23:17:29.242Z,4.66
2022-12-01T23:20:24.526Z,4.67
2022-12-01T23:22:55.752Z,4.67
2022-12-01T23:25:23.397Z,4.65
2022-12-01T23:27:51.874Z,4.75
2022-12-01T23:30:20.027Z,4.67
2022-12-01T23:32:53.667Z,4.65
2022-12-01T23:35:20.018Z,4.68
2022-12-01T23:37:47.869Z,4.64
2022-12-01T23:40:33.094Z,4.62
2022-12-01T23:43:16.452Z,4.59
2022-12-01T23:45:43.551Z,4.61
2022-12-01T23:48:18.062Z,4.61
2022-12-01T23:50:45.304Z,4.60
2022-12-01T23:53:34.253Z,4.59
2022-12-01T23:56:09.634Z,4.61
2022-12-01T23:58:35.986Z,4.52
